createdAt,value
2022-09-03T00:00:03.327Z,986.86
2022-09-03T00:01:05.033Z,986.9
2022-09-03T00:02:06.904Z,986.9
2022-09-03T00:03:08.603Z,986.87
2022-09-03T00:04:10.230Z,986.85
2022-09-03T00:05:11.965Z,986.88
2022-09-03T00:06:13.705Z,986.88
2022-09-03T00:07:15.469Z,986.88
2022-09-03T00:08:17.181Z,986.85
2022-09-03T00:09:18.921Z,986.9
2022-09-03T00:10:20.688Z,986.87
2022-09-03T00:11:22.415Z,986.91
2022-09-03T00:12:24.153Z,986.89
2022-09-03T00:13:25.860Z,986.91
2022-09-03T00:14:27.599Z,986.95
2022-09-03T00:15:29.348Z,986.9
2022-09-03T00:16:31.048Z,986.88
2022-09-03T00:17:32.796Z,986.86
2022-09-03T00:18:34.516Z,986.87
2022-09-03T00:19:36.287Z,986.84
2022-09-03T00:20:38.028Z,986.85
2022-09-03T00:21:39.763Z,986.82
2022-09-03T00:22:41.460Z,986.84
2022-09-03T00:23:43.191Z,986.77
2022-09-03T00:24:44.930Z,986.89
2022-09-03T00:25:46.723Z,986.84
2022-09-03T00:26:48.460Z,986.83
2022-09-03T00:27:50.137Z,986.84
2022-09-03T00:28:51.869Z,986.86
2022-09-03T00:29:53.592Z,986.83
2022-09-03T00:30:55.366Z,986.82
2022-09-03T00:31:57.069Z,986.79
2022-09-03T00:32:58.803Z,986.81
2022-09-03T00:34:00.533Z,986.79
2022-09-03T00:35:02.311Z,986.73
2022-09-03T00:36:13.981Z,986.78
2022-09-03T00:37:05.740Z,986.79
2022-09-03T00:38:07.508Z,986.81
2022-09-03T00:39:09.245Z,986.81
2022-09-03T00:40:10.962Z,986.84
2022-09-03T00:41:12.711Z,986.79
2022-09-03T00:42:14.417Z,986.8
2022-09-03T00:43:16.145Z,986.75
2022-09-03T00:44:17.883Z,986.73
2022-09-03T00:45:19.607Z,986.78
2022-09-03T00:46:21.413Z,986.72
2022-09-03T00:47:23.095Z,986.76
2022-09-03T00:48:28.240Z,986.77
2022-09-03T00:49:26.543Z,986.76
2022-09-03T00:50:28.318Z,986.75
2022-09-03T00:51:30.061Z,986.73
2022-09-03T00:52:33.686Z,986.79
2022-09-03T00:53:33.478Z,986.77
2022-09-03T00:54:35.267Z,986.81
2022-09-03T00:55:36.953Z,986.78
2022-09-03T00:56:38.686Z,986.8
2022-09-03T00:57:40.425Z,986.84
2022-09-03T00:58:42.164Z,986.82
2022-09-03T00:59:43.891Z,986.8
2022-09-03T01:00:45.636Z,986.76
2022-09-03T01:01:47.511Z,986.84
2022-09-03T01:02:49.239Z,986.83
2022-09-03T01:03:50.870Z,986.81
2022-09-03T01:04:52.565Z,986.82
2022-09-03T01:05:56.532Z,986.78
2022-09-03T01:06:56.032Z,986.8
2022-09-03T01:07:57.778Z,986.78
2022-09-03T01:08:59.506Z,986.78
2022-09-03T01:10:01.244Z,986.77
2022-09-03T01:11:06.043Z,986.75
2022-09-03T01:12:04.699Z,986.74
2022-09-03T01:13:06.453Z,986.74
2022-09-03T01:14:08.176Z,986.7
2022-09-03T01:15:09.915Z,986.68
2022-09-03T01:16:11.709Z,986.69
2022-09-03T01:17:13.379Z,986.69
2022-09-03T01:18:15.169Z,986.66
2022-09-03T01:19:16.885Z,986.69
2022-09-03T01:20:18.586Z,986.71
2022-09-03T01:21:20.365Z,986.72
2022-09-03T01:22:22.079Z,986.71
2022-09-03T01:23:23.813Z,986.7
2022-09-03T01:24:25.516Z,986.69
2022-09-03T01:25:27.303Z,986.69
2022-09-03T01:26:29.002Z,986.7
2022-09-03T01:27:30.731Z,986.71
2022-09-03T01:28:32.484Z,986.71
2022-09-03T01:29:34.192Z,986.69
2022-09-03T01:30:35.914Z,986.72
2022-09-03T01:31:37.622Z,986.69
2022-09-03T01:32:39.338Z,986.66
2022-09-03T01:33:41.071Z,986.68
2022-09-03T01:34:42.829Z,986.66
2022-09-03T01:35:44.540Z,986.66
2022-09-03T01:36:46.266Z,986.58
2022-09-03T01:37:48.002Z,986.61
2022-09-03T01:38:49.748Z,986.6
2022-09-03T01:39:51.549Z,986.63
2022-09-03T01:40:53.214Z,986.62
2022-09-03T01:41:54.943Z,986.6
2022-09-03T01:42:56.709Z,986.58
2022-09-03T01:43:58.436Z,986.61
2022-09-03T01:45:00.173Z,986.66
2022-09-03T01:46:01.984Z,986.63
2022-09-03T01:47:03.618Z,986.64
2022-09-03T01:48:05.344Z,986.61
2022-09-03T01:49:07.093Z,986.67
2022-09-03T01:50:08.821Z,986.66
2022-09-03T01:51:10.560Z,986.68
2022-09-03T01:52:12.286Z,986.68
2022-09-03T01:53:14.019Z,986.64
2022-09-03T01:54:20.723Z,986.69
2022-09-03T01:55:17.518Z,986.69
2022-09-03T01:56:19.227Z,986.7
2022-09-03T01:57:34.669Z,986.66
2022-09-03T01:58:22.725Z,986.74
2022-09-03T01:59:24.431Z,986.75
2022-09-03T02:00:26.184Z,986.73
2022-09-03T02:01:28.013Z,986.74
2022-09-03T02:02:29.732Z,986.77
2022-09-03T02:03:31.383Z,986.74
2022-09-03T02:04:33.117Z,986.76
2022-09-03T02:05:34.861Z,986.73
2022-09-03T02:06:36.566Z,986.72
2022-09-03T02:07:38.301Z,986.71
2022-09-03T02:08:40.045Z,986.71
2022-09-03T02:09:41.763Z,986.69
2022-09-03T02:10:43.518Z,986.68
2022-09-03T02:11:45.251Z,986.67
2022-09-03T02:12:46.985Z,986.72
2022-09-03T02:13:48.719Z,986.72
2022-09-03T02:14:50.434Z,986.65
2022-09-03T02:15:52.290Z,986.7
2022-09-03T02:16:53.946Z,986.62
2022-09-03T02:17:55.641Z,986.65
2022-09-03T02:18:57.587Z,986.6
2022-09-03T02:19:59.136Z,986.67
2022-09-03T02:21:00.845Z,986.69
2022-09-03T02:22:02.614Z,986.71
2022-09-03T02:23:04.317Z,986.71
2022-09-03T02:24:06.041Z,986.7
2022-09-03T02:25:07.813Z,986.74
2022-09-03T02:26:09.519Z,986.75
2022-09-03T02:27:11.283Z,986.73
2022-09-03T02:28:17.020Z,986.77
2022-09-03T02:29:14.727Z,986.77
2022-09-03T02:30:16.483Z,986.78
2022-09-03T02:31:18.307Z,986.77
2022-09-03T02:32:19.945Z,986.76
2022-09-03T02:33:21.682Z,986.81
2022-09-03T02:34:23.421Z,986.8
2022-09-03T02:35:25.164Z,986.74
2022-09-03T02:36:27.638Z,986.76
2022-09-03T02:37:28.684Z,986.75
2022-09-03T02:38:30.370Z,986.76
2022-09-03T02:39:34.151Z,986.73
2022-09-03T02:40:33.832Z,986.79
2022-09-03T02:41:35.545Z,986.78
2022-09-03T02:42:37.277Z,986.78
2022-09-03T02:43:39.028Z,986.78
2022-09-03T02:44:40.751Z,986.74
2022-09-03T02:45:42.599Z,986.7
2022-09-03T02:46:44.230Z,986.75
2022-09-03T02:47:45.959Z,986.74
2022-09-03T02:48:47.717Z,986.72
2022-09-03T02:49:49.463Z,986.71
2022-09-03T02:50:51.173Z,986.67
2022-09-03T02:51:52.882Z,986.71
2022-09-03T02:52:54.611Z,986.67
2022-09-03T02:53:56.352Z,986.66
2022-09-03T02:54:58.086Z,986.69
2022-09-03T02:55:59.829Z,986.68
2022-09-03T02:57:01.566Z,986.71
2022-09-03T02:58:03.285Z,986.68
2022-09-03T02:59:05.020Z,986.72
2022-09-03T03:00:06.747Z,986.69
2022-09-03T03:01:08.549Z,986.65
2022-09-03T03:02:10.276Z,986.69
2022-09-03T03:03:11.951Z,986.72
2022-09-03T03:04:13.688Z,986.67
2022-09-03T03:05:15.425Z,986.73
2022-09-03T03:06:17.182Z,986.68
2022-09-03T03:07:18.899Z,986.62
2022-09-03T03:08:20.608Z,986.67
2022-09-03T03:09:22.360Z,986.71
2022-09-03T03:10:24.087Z,986.68
2022-09-03T03:11:25.841Z,986.71
2022-09-03T03:12:27.585Z,986.71
2022-09-03T03:13:29.298Z,986.74
2022-09-03T03:14:31.026Z,986.65
2022-09-03T03:15:32.773Z,986.69
2022-09-03T03:16:34.558Z,986.68
2022-09-03T03:17:36.222Z,986.75
2022-09-03T03:18:38.022Z,986.68
2022-09-03T03:19:39.735Z,986.68
2022-09-03T03:20:41.423Z,986.71
2022-09-03T03:21:43.168Z,986.67
2022-09-03T03:22:44.905Z,986.69
2022-09-03T03:23:46.638Z,986.7
2022-09-03T03:24:48.361Z,986.66
2022-09-03T03:25:50.110Z,986.66
2022-09-03T03:26:51.865Z,986.65
2022-09-03T03:27:53.578Z,986.6
2022-09-03T03:28:55.305Z,986.57
2022-09-03T03:29:57.039Z,986.56
2022-09-03T03:30:58.932Z,986.54
2022-09-03T03:32:00.504Z,986.57
2022-09-03T03:33:02.270Z,986.57
2022-09-03T03:34:03.968Z,986.58
2022-09-03T03:35:05.705Z,986.56
2022-09-03T03:36:07.453Z,986.53
2022-09-03T03:37:09.182Z,986.59
2022-09-03T03:38:10.944Z,986.57
2022-09-03T03:39:12.647Z,986.58
2022-09-03T03:40:14.376Z,986.63
2022-09-03T03:41:16.127Z,986.64
2022-09-03T03:42:17.857Z,986.66
2022-09-03T03:43:19.571Z,986.66
2022-09-03T03:44:21.322Z,986.66
2022-09-03T03:45:23.051Z,986.6
2022-09-03T03:46:24.894Z,986.62
2022-09-03T03:47:26.538Z,986.61
2022-09-03T03:48:28.307Z,986.6
2022-09-03T03:49:29.991Z,986.63
2022-09-03T03:50:31.713Z,986.64
2022-09-03T03:51:33.443Z,986.62
2022-09-03T03:52:35.197Z,986.64
2022-09-03T03:53:36.918Z,986.57
2022-09-03T03:54:38.646Z,986.57
2022-09-03T03:55:40.395Z,986.55
2022-09-03T03:56:42.115Z,986.54
2022-09-03T03:57:43.885Z,986.63
2022-09-03T03:58:45.604Z,986.66
2022-09-03T03:59:47.330Z,986.68
2022-09-03T04:00:49.157Z,986.68
2022-09-03T04:01:50.798Z,986.69
2022-09-03T04:02:52.602Z,986.73
2022-09-03T04:03:54.263Z,986.64
2022-09-03T04:04:56.016Z,986.63
2022-09-03T04:05:57.766Z,986.61
2022-09-03T04:06:59.466Z,986.59
2022-09-03T04:08:01.204Z,986.6
2022-09-03T04:09:02.966Z,986.67
2022-09-03T04:10:04.679Z,986.61
2022-09-03T04:11:06.433Z,986.58
2022-09-03T04:12:08.144Z,986.6
2022-09-03T04:13:09.867Z,986.57
2022-09-03T04:14:11.607Z,986.58
2022-09-03T04:15:13.337Z,986.55
2022-09-03T04:16:15.171Z,986.53
2022-09-03T04:17:16.812Z,986.57
2022-09-03T04:18:18.585Z,986.55
2022-09-03T04:19:20.294Z,986.53
2022-09-03T04:20:22.019Z,986.51
2022-09-03T04:21:23.772Z,986.51
2022-09-03T04:22:25.485Z,986.55
2022-09-03T04:23:27.217Z,986.52
2022-09-03T04:24:28.956Z,986.53
2022-09-03T04:25:30.717Z,986.52
2022-09-03T04:26:32.475Z,986.53
2022-09-03T04:27:34.165Z,986.52
2022-09-03T04:28:35.946Z,986.54
2022-09-03T04:29:37.632Z,986.55
2022-09-03T04:30:39.458Z,986.49
2022-09-03T04:31:41.092Z,986.51
2022-09-03T04:32:42.836Z,986.53
2022-09-03T04:33:44.569Z,986.53
2022-09-03T04:34:46.293Z,986.5
2022-09-03T04:35:48.058Z,986.52
2022-09-03T04:36:52.843Z,986.54
2022-09-03T04:37:51.512Z,986.5
2022-09-03T04:38:53.247Z,986.52
2022-09-03T04:39:55.070Z,986.55
2022-09-03T04:40:56.715Z,986.57
2022-09-03T04:42:00.104Z,986.57
2022-09-03T04:43:00.181Z,986.58
2022-09-03T04:44:01.904Z,986.63
2022-09-03T04:45:03.634Z,986.6
2022-09-03T04:46:16.376Z,986.65
2022-09-03T04:47:07.100Z,986.64
2022-09-03T04:48:08.846Z,986.69
2022-09-03T04:49:10.575Z,986.69
2022-09-03T04:50:12.312Z,986.67
2022-09-03T04:51:14.065Z,986.72
2022-09-03T04:52:15.769Z,986.69
2022-09-03T04:53:17.525Z,986.69
2022-09-03T04:54:19.247Z,986.72
2022-09-03T04:55:20.984Z,986.72
2022-09-03T04:56:22.715Z,986.75
2022-09-03T04:57:24.454Z,986.77
2022-09-03T04:58:26.208Z,986.69
2022-09-03T04:59:27.967Z,986.77
2022-09-03T05:00:29.650Z,986.78
2022-09-03T05:01:31.471Z,986.79
2022-09-03T05:02:33.187Z,986.77
2022-09-03T05:03:34.874Z,986.76
2022-09-03T05:04:36.581Z,986.78
2022-09-03T05:05:38.323Z,986.77
2022-09-03T05:06:40.048Z,986.87
2022-09-03T05:07:41.781Z,986.83
2022-09-03T05:08:43.506Z,986.82
2022-09-03T05:09:45.258Z,986.86
2022-09-03T05:10:47.007Z,986.82
2022-09-03T05:11:48.716Z,986.87
2022-09-03T05:12:50.453Z,986.91
2022-09-03T05:13:52.208Z,986.89
2022-09-03T05:14:53.942Z,986.93
2022-09-03T05:15:55.647Z,987.01
2022-09-03T05:16:57.423Z,986.96
2022-09-03T05:17:59.203Z,986.97
2022-09-03T05:19:00.871Z,986.98
2022-09-03T05:20:02.613Z,986.99
2022-09-03T05:21:07.382Z,987.02
2022-09-03T05:22:06.068Z,987.04
2022-09-03T05:23:07.810Z,986.99
2022-09-03T05:24:09.542Z,987.03
2022-09-03T05:25:11.269Z,987.08
2022-09-03T05:26:13.008Z,987.08
2022-09-03T05:27:14.739Z,987.08
2022-09-03T05:28:16.471Z,987.06
2022-09-03T05:29:18.203Z,987.1
2022-09-03T05:30:19.950Z,987.08
2022-09-03T05:31:21.727Z,987.07
2022-09-03T05:32:23.414Z,987.13
2022-09-03T05:33:25.156Z,987.11
2022-09-03T05:34:26.887Z,987.13
2022-09-03T05:35:30.316Z,987.15
2022-09-03T05:36:30.350Z,987.15
2022-09-03T05:37:32.096Z,987.15
2022-09-03T05:38:33.831Z,987.12
2022-09-03T05:39:35.639Z,987.16
2022-09-03T05:40:37.305Z,987.2
2022-09-03T05:41:39.020Z,987.2
2022-09-03T05:42:40.792Z,987.17
2022-09-03T05:43:42.494Z,987.21
2022-09-03T05:44:44.234Z,987.21
2022-09-03T05:45:46.122Z,987.25
2022-09-03T05:46:47.701Z,987.28
2022-09-03T05:47:49.499Z,987.29
2022-09-03T05:48:51.169Z,987.33
2022-09-03T05:49:52.900Z,987.31
2022-09-03T05:50:54.827Z,987.33
2022-09-03T05:51:56.589Z,987.35
2022-09-03T05:52:58.113Z,987.37
2022-09-03T05:53:59.900Z,987.33
2022-09-03T05:55:01.579Z,987.32
2022-09-03T05:56:08.663Z,987.35
2022-09-03T05:57:05.051Z,987.38
2022-09-03T05:58:06.799Z,987.43
2022-09-03T05:59:08.557Z,987.39
2022-09-03T06:00:10.240Z,987.45
2022-09-03T06:01:11.999Z,987.43
2022-09-03T06:02:13.853Z,987.45
2022-09-03T06:03:15.627Z,987.43
2022-09-03T06:04:17.210Z,987.48
2022-09-03T06:05:18.929Z,987.51
2022-09-03T06:06:20.721Z,987.48
2022-09-03T06:07:22.410Z,987.51
2022-09-03T06:08:24.184Z,987.51
2022-09-03T06:09:25.866Z,987.53
2022-09-03T06:10:34.451Z,987.53
2022-09-03T06:11:29.338Z,987.52
2022-09-03T06:12:31.080Z,987.52
2022-09-03T06:13:32.812Z,987.52
2022-09-03T06:14:34.538Z,987.48
2022-09-03T06:15:36.293Z,987.48
2022-09-03T06:16:38.097Z,987.47
2022-09-03T06:17:39.751Z,987.46
2022-09-03T06:18:41.488Z,987.45
2022-09-03T06:19:43.221Z,987.48
2022-09-03T06:20:44.948Z,987.47
2022-09-03T06:21:46.693Z,987.46
2022-09-03T06:22:48.426Z,987.53
2022-09-03T06:23:50.161Z,987.51
2022-09-03T06:24:51.887Z,987.5
2022-09-03T06:25:53.629Z,987.52
2022-09-03T06:26:55.381Z,987.53
2022-09-03T06:27:57.101Z,987.5
2022-09-03T06:28:58.874Z,987.5
2022-09-03T06:30:00.562Z,987.49
2022-09-03T06:31:02.329Z,987.5
2022-09-03T06:32:04.158Z,987.48
2022-09-03T06:33:05.771Z,987.52
2022-09-03T06:34:07.511Z,987.49
2022-09-03T06:35:09.296Z,987.47
2022-09-03T06:36:10.989Z,987.47
2022-09-03T06:37:12.717Z,987.45
2022-09-03T06:38:14.537Z,987.41
2022-09-03T06:39:16.908Z,987.47
2022-09-03T06:40:17.939Z,987.41
2022-09-03T06:41:19.663Z,987.4
2022-09-03T06:42:21.382Z,987.4
2022-09-03T06:43:23.110Z,987.38
2022-09-03T06:44:24.889Z,987.38
2022-09-03T06:45:26.633Z,987.36
2022-09-03T06:46:28.313Z,987.37
2022-09-03T06:47:30.096Z,987.39
2022-09-03T06:48:31.848Z,987.42
2022-09-03T06:49:33.523Z,987.34
2022-09-03T06:50:35.276Z,987.39
2022-09-03T06:51:37.002Z,987.41
2022-09-03T06:52:38.727Z,987.4
2022-09-03T06:53:40.466Z,987.42
2022-09-03T06:54:42.238Z,987.39
2022-09-03T06:55:43.985Z,987.41
2022-09-03T06:56:45.663Z,987.42
2022-09-03T06:57:47.406Z,987.45
2022-09-03T06:58:49.152Z,987.45
2022-09-03T06:59:50.873Z,987.46
2022-09-03T07:00:52.772Z,987.45
2022-09-03T07:01:54.628Z,987.43
2022-09-03T07:02:56.085Z,987.41
2022-09-03T07:03:57.845Z,987.49
2022-09-03T07:04:59.544Z,987.46
2022-09-03T07:06:01.303Z,987.5
2022-09-03T07:07:03.017Z,987.49
2022-09-03T07:08:04.745Z,987.47
2022-09-03T07:09:06.491Z,987.54
2022-09-03T07:10:08.224Z,987.55
2022-09-03T07:11:09.968Z,987.53
2022-09-03T07:12:11.685Z,987.57
2022-09-03T07:13:13.425Z,987.55
2022-09-03T07:14:15.194Z,987.55
2022-09-03T07:15:16.901Z,987.57
2022-09-03T07:16:18.789Z,987.55
2022-09-03T07:17:20.384Z,987.53
2022-09-03T07:18:22.108Z,987.5
2022-09-03T07:19:23.849Z,987.55
2022-09-03T07:20:25.598Z,987.52
2022-09-03T07:21:27.311Z,987.48
2022-09-03T07:22:31.700Z,987.6
2022-09-03T07:23:30.770Z,987.6
2022-09-03T07:24:32.525Z,987.6
2022-09-03T07:25:34.247Z,987.62
2022-09-03T07:26:35.989Z,987.65
2022-09-03T07:27:37.718Z,987.63
2022-09-03T07:28:39.447Z,987.66
2022-09-03T07:29:41.180Z,987.64
2022-09-03T07:30:42.898Z,987.67
2022-09-03T07:31:44.699Z,987.69
2022-09-03T07:32:46.372Z,987.66
2022-09-03T07:33:48.153Z,987.65
2022-09-03T07:34:49.848Z,987.66
2022-09-03T07:35:51.682Z,987.67
2022-09-03T07:36:53.317Z,987.62
2022-09-03T07:37:55.054Z,987.66
2022-09-03T07:38:56.787Z,987.65
2022-09-03T07:39:58.637Z,987.65
2022-09-03T07:41:00.277Z,987.62
2022-09-03T07:42:01.986Z,987.66
2022-09-03T07:43:03.722Z,987.63
2022-09-03T07:44:05.475Z,987.64
2022-09-03T07:45:07.263Z,987.66
2022-09-03T07:46:09.002Z,987.69
2022-09-03T07:47:10.659Z,987.68
2022-09-03T07:48:12.403Z,987.72
2022-09-03T07:49:14.144Z,987.68
2022-09-03T07:50:15.890Z,987.69
2022-09-03T07:51:17.630Z,987.68
2022-09-03T07:52:19.344Z,987.65
2022-09-03T07:53:21.081Z,987.67
2022-09-03T07:54:22.822Z,987.72
2022-09-03T07:55:24.536Z,987.69
2022-09-03T07:56:26.283Z,987.68
2022-09-03T07:57:28.010Z,987.72
2022-09-03T07:58:29.747Z,987.77
2022-09-03T07:59:31.486Z,987.75
2022-09-03T08:00:33.320Z,987.73
2022-09-03T08:01:34.978Z,987.69
2022-09-03T08:02:36.717Z,987.69
2022-09-03T08:03:38.517Z,987.66
2022-09-03T08:04:40.193Z,987.61
2022-09-03T08:05:41.897Z,987.61
2022-09-03T08:06:43.628Z,987.52
2022-09-03T08:07:45.381Z,987.57
2022-09-03T08:08:47.104Z,987.55
2022-09-03T08:09:48.846Z,987.45
2022-09-03T08:10:50.570Z,987.5
2022-09-03T08:11:52.297Z,987.44
2022-09-03T08:12:54.074Z,987.49
2022-09-03T08:13:55.777Z,987.42
2022-09-03T08:14:57.515Z,987.53
2022-09-03T08:15:59.340Z,987.5
2022-09-03T08:17:00.983Z,987.5
2022-09-03T08:18:03.644Z,987.57
2022-09-03T08:19:04.431Z,987.58
2022-09-03T08:20:06.253Z,987.61
2022-09-03T08:21:07.935Z,987.67
2022-09-03T08:22:09.650Z,987.7
2022-09-03T08:23:11.383Z,987.76
2022-09-03T08:24:13.124Z,987.74
2022-09-03T08:25:14.944Z,987.88
2022-09-03T08:26:16.578Z,987.9
2022-09-03T08:27:18.357Z,987.97
2022-09-03T08:28:20.193Z,988.03
2022-09-03T08:29:21.786Z,988.02
2022-09-03T08:30:23.536Z,988
2022-09-03T08:31:25.291Z,987.99
2022-09-03T08:32:27.027Z,987.98
2022-09-03T08:33:28.719Z,987.99
2022-09-03T08:34:30.448Z,988.01
2022-09-03T08:35:32.193Z,988.02
2022-09-03T08:36:33.929Z,988
2022-09-03T08:37:35.735Z,987.97
2022-09-03T08:38:37.425Z,988.01
2022-09-03T08:39:39.176Z,987.99
2022-09-03T08:40:40.858Z,987.98
2022-09-03T08:41:42.612Z,988.08
2022-09-03T08:42:44.332Z,988
2022-09-03T08:43:46.058Z,987.97
2022-09-03T08:44:47.794Z,987.99
2022-09-03T08:45:49.537Z,987.99
2022-09-03T08:46:51.338Z,988
2022-09-03T08:47:53.009Z,987.95
2022-09-03T08:48:54.731Z,987.96
2022-09-03T08:49:56.501Z,987.96
2022-09-03T08:50:58.208Z,988.02
2022-09-03T08:51:59.925Z,987.98
2022-09-03T08:53:01.668Z,987.99
2022-09-03T08:54:03.408Z,987.97
2022-09-03T08:55:05.150Z,988.05
2022-09-03T08:56:06.882Z,988.04
2022-09-03T08:57:08.652Z,988.11
2022-09-03T08:58:10.370Z,988.14
2022-09-03T08:59:12.114Z,988.11
2022-09-03T09:00:13.838Z,988.15
2022-09-03T09:01:15.614Z,988.08
2022-09-03T09:02:17.675Z,988.14
2022-09-03T09:03:19.096Z,988.11
2022-09-03T09:04:20.795Z,988.14
2022-09-03T09:05:22.545Z,988.18
2022-09-03T09:06:24.242Z,988.2
2022-09-03T09:07:25.976Z,988.24
2022-09-03T09:08:27.692Z,988.19
2022-09-03T09:09:29.456Z,988.25
2022-09-03T09:10:31.170Z,988.2
2022-09-03T09:11:32.961Z,988.16
2022-09-03T09:12:42.693Z,988.2
2022-09-03T09:13:36.401Z,988.19
2022-09-03T09:14:39.228Z,988.2
2022-09-03T09:15:39.946Z,988.21
2022-09-03T09:16:41.578Z,988.25
2022-09-03T09:17:43.359Z,988.3
2022-09-03T09:18:45.043Z,988.28
2022-09-03T09:19:46.776Z,988.25
2022-09-03T09:20:48.590Z,988.26
2022-09-03T09:21:50.298Z,988.25
2022-09-03T09:22:51.980Z,988.3
2022-09-03T09:23:53.721Z,988.29
2022-09-03T09:24:55.456Z,988.27
2022-09-03T09:25:58.223Z,988.24
2022-09-03T09:26:58.919Z,988.24
2022-09-03T09:28:00.651Z,988.27
2022-09-03T09:29:02.421Z,988.24
2022-09-03T09:30:04.134Z,988.27
2022-09-03T09:31:10.929Z,988.24
2022-09-03T09:32:07.581Z,988.21
2022-09-03T09:33:09.348Z,988.15
2022-09-03T09:34:11.106Z,988.16
2022-09-03T09:35:12.781Z,988.17
2022-09-03T09:36:15.621Z,988.15
2022-09-03T09:37:16.261Z,988.19
2022-09-03T09:38:18.050Z,988.19
2022-09-03T09:39:19.807Z,988.2
2022-09-03T09:40:21.509Z,988.17
2022-09-03T09:41:26.275Z,988.13
2022-09-03T09:42:24.939Z,988.17
2022-09-03T09:43:26.665Z,988.18
2022-09-03T09:44:28.442Z,988.21
2022-09-03T09:45:30.132Z,988.18
2022-09-03T09:46:31.945Z,988.22
2022-09-03T09:47:34.822Z,988.21
2022-09-03T09:48:35.343Z,988.22
2022-09-03T09:49:37.086Z,988.23
2022-09-03T09:50:38.817Z,988.25
2022-09-03T09:51:40.563Z,988.24
2022-09-03T09:52:42.283Z,988.24
2022-09-03T09:53:44.085Z,988.25
2022-09-03T09:54:46.916Z,988.22
2022-09-03T09:55:47.515Z,988.27
2022-09-03T09:56:49.227Z,988.25
2022-09-03T09:57:50.165Z,988.23
2022-09-03T09:58:52.719Z,988.26
2022-09-03T09:59:54.457Z,988.27
2022-09-03T10:00:56.195Z,988.29
2022-09-03T10:01:57.972Z,988.27
2022-09-03T10:02:59.693Z,988.28
2022-09-03T10:04:01.380Z,988.24
2022-09-03T10:05:03.183Z,988.26
2022-09-03T10:06:14.816Z,988.25
2022-09-03T10:07:06.578Z,988.28
2022-09-03T10:08:08.291Z,988.31
2022-09-03T10:09:10.033Z,988.25
2022-09-03T10:10:11.821Z,988.25
2022-09-03T10:11:13.542Z,988.24
2022-09-03T10:12:15.228Z,988.26
2022-09-03T10:13:16.969Z,988.22
2022-09-03T10:14:18.716Z,988.24
2022-09-03T10:15:21.470Z,988.21
2022-09-03T10:16:22.260Z,988.2
2022-09-03T10:17:26.566Z,988.18
2022-09-03T10:18:26.260Z,988.17
2022-09-03T10:19:27.375Z,988.19
2022-09-03T10:20:29.108Z,988.19
2022-09-03T10:21:30.831Z,988.21
2022-09-03T10:22:32.556Z,988.21
2022-09-03T10:23:34.383Z,988.19
2022-09-03T10:24:36.092Z,988.18
2022-09-03T10:25:37.818Z,988.2
2022-09-03T10:26:39.558Z,988.25
2022-09-03T10:27:41.289Z,988.23
2022-09-03T10:28:43.019Z,988.21
2022-09-03T10:29:44.761Z,988.18
2022-09-03T10:30:46.571Z,988.15
2022-09-03T10:31:48.236Z,988.14
2022-09-03T10:32:49.965Z,988.17
2022-09-03T10:33:51.698Z,988.11
2022-09-03T10:34:53.442Z,988.22
2022-09-03T10:35:55.201Z,988.14
2022-09-03T10:36:56.896Z,988.23
2022-09-03T10:37:58.632Z,988.22
2022-09-03T10:39:00.372Z,988.23
2022-09-03T10:40:02.220Z,988.3
2022-09-03T10:41:08.862Z,988.27
2022-09-03T10:42:05.575Z,988.24
2022-09-03T10:43:07.343Z,988.29
2022-09-03T10:44:09.043Z,988.27
2022-09-03T10:45:10.787Z,988.24
2022-09-03T10:46:12.570Z,988.32
2022-09-03T10:47:14.243Z,988.24
2022-09-03T10:48:16.046Z,988.26
2022-09-03T10:49:17.702Z,988.29
2022-09-03T10:50:19.449Z,988.31
2022-09-03T10:52:14.888Z,988.27
2022-09-03T10:53:16.632Z,988.29
2022-09-03T10:54:18.354Z,988.27
2022-09-03T10:55:20.125Z,988.31
2022-09-03T10:56:21.871Z,988.27
2022-09-03T10:57:23.636Z,988.26
2022-09-03T10:58:25.441Z,988.28
2022-09-03T10:59:29.157Z,988.28
2022-09-03T11:00:28.870Z,988.22
2022-09-03T11:01:30.670Z,988.26
2022-09-03T11:02:32.400Z,988.22
2022-09-03T11:03:34.107Z,988.23
2022-09-03T11:04:37.711Z,988.18
2022-09-03T11:05:37.453Z,988.16
2022-09-03T11:06:39.204Z,988.17
2022-09-03T11:07:40.945Z,988.2
2022-09-03T11:08:42.692Z,988.17
2022-09-03T11:09:44.389Z,988.15
2022-09-03T11:10:46.154Z,988.06
2022-09-03T11:11:47.920Z,988.08
2022-09-03T11:12:49.592Z,988.09
2022-09-03T11:13:51.326Z,988.02
2022-09-03T11:14:53.044Z,988.04
2022-09-03T11:15:54.981Z,988
2022-09-03T11:16:56.527Z,988
2022-09-03T11:17:58.251Z,988.02
2022-09-03T11:18:59.993Z,988.05
2022-09-03T11:20:01.728Z,988
2022-09-03T11:21:12.117Z,988.04
2022-09-03T11:22:05.219Z,988.04
2022-09-03T11:23:06.945Z,988.03
2022-09-03T11:24:08.704Z,988.06
2022-09-03T11:25:10.395Z,988.05
2022-09-03T11:26:12.125Z,988.05
2022-09-03T11:27:13.892Z,988.05
2022-09-03T11:28:15.665Z,987.99
2022-09-03T11:29:18.305Z,988.01
2022-09-03T11:30:19.085Z,987.99
2022-09-03T11:31:20.917Z,987.98
2022-09-03T11:32:22.581Z,987.97
2022-09-03T11:33:24.280Z,987.94
2022-09-03T11:34:32.224Z,987.91
2022-09-03T11:35:27.779Z,987.94
2022-09-03T11:36:29.526Z,987.84
2022-09-03T11:37:31.208Z,987.82
2022-09-03T11:38:32.980Z,987.84
2022-09-03T11:39:34.782Z,987.87
2022-09-03T11:40:36.394Z,987.85
2022-09-03T11:41:38.175Z,987.91
2022-09-03T11:42:39.881Z,987.91
2022-09-03T11:43:41.650Z,987.85
2022-09-03T11:44:50.990Z,987.83
2022-09-03T11:45:45.146Z,987.8
2022-09-03T11:46:46.827Z,987.77
2022-09-03T11:47:48.544Z,987.79
2022-09-03T11:48:50.315Z,987.76
2022-09-03T11:49:52.069Z,987.74
2022-09-03T11:50:53.757Z,987.82
2022-09-03T11:51:55.509Z,987.75
2022-09-03T11:52:58.656Z,987.8
2022-09-03T11:53:58.953Z,987.77
2022-09-03T11:55:00.715Z,987.73
2022-09-03T11:56:02.471Z,987.68
2022-09-03T11:57:04.149Z,987.7
2022-09-03T11:58:05.897Z,987.63
2022-09-03T11:59:07.623Z,987.7
2022-09-03T12:00:09.367Z,987.67
2022-09-03T12:01:11.124Z,987.68
2022-09-03T12:02:12.874Z,987.68
2022-09-03T12:03:14.562Z,987.67
2022-09-03T12:04:16.360Z,987.67
2022-09-03T12:05:18.051Z,987.64
2022-09-03T12:06:19.882Z,987.63
2022-09-03T12:07:21.496Z,987.65
2022-09-03T12:08:23.253Z,987.69
2022-09-03T12:09:24.998Z,987.71
2022-09-03T12:10:26.761Z,987.65
2022-09-03T12:11:28.419Z,987.65
2022-09-03T12:12:30.196Z,987.64
2022-09-03T12:13:31.990Z,987.64
2022-09-03T12:14:33.636Z,987.69
2022-09-03T12:15:35.405Z,987.66
2022-09-03T12:16:37.104Z,987.65
2022-09-03T12:17:38.885Z,987.67
2022-09-03T12:18:40.594Z,987.66
2022-09-03T12:19:42.338Z,987.62
2022-09-03T12:20:44.034Z,987.6
2022-09-03T12:21:45.798Z,987.56
2022-09-03T12:22:47.602Z,987.58
2022-09-03T12:23:49.237Z,987.57
2022-09-03T12:24:50.973Z,987.6
2022-09-03T12:25:52.715Z,987.51
2022-09-03T12:26:54.460Z,987.49
2022-09-03T12:27:56.217Z,987.45
2022-09-03T12:28:57.967Z,987.44
2022-09-03T12:29:59.723Z,987.41
2022-09-03T12:31:01.471Z,987.4
2022-09-03T12:32:03.123Z,987.44
2022-09-03T12:33:05.014Z,987.43
2022-09-03T12:34:06.612Z,987.45
2022-09-03T12:35:08.372Z,987.44
2022-09-03T12:36:15.057Z,987.46
2022-09-03T12:37:11.813Z,987.41
2022-09-03T12:38:18.332Z,987.41
2022-09-03T12:39:15.323Z,987.4
2022-09-03T12:40:17.042Z,987.42
2022-09-03T12:41:23.501Z,987.49
2022-09-03T12:42:20.494Z,987.47
2022-09-03T12:43:38.692Z,987.5
2022-09-03T12:44:23.988Z,987.42
2022-09-03T12:45:25.853Z,987.53
2022-09-03T12:46:33.207Z,987.47
2022-09-03T12:47:37.722Z,987.52
2022-09-03T12:48:33.021Z,987.53
2022-09-03T12:49:32.614Z,987.5
2022-09-03T12:50:34.354Z,987.5
2022-09-03T12:51:54.814Z,987.49
2022-09-03T12:52:37.854Z,987.48
2022-09-03T12:53:39.585Z,987.51